createdAt,value
2019-04-21T10:41:33.103Z,1019.60
2019-04-21T10:42:33.200Z,1019.55
2019-04-21T10:43:33.445Z,1019.59
2019-04-21T10:44:32.177Z,1019.58
2019-04-21T10:45:32.788Z,1019.53
2019-04-21T10:46:34.877Z,1019.54
2019-04-21T10:47:32.143Z,1019.49
2019-04-21T10:48:34.562Z,1019.57
2019-04-21T10:49:32.757Z,1019.53
2019-04-21T10:50:32.105Z,1019.50
2019-04-21T10:51:32.880Z,1019.50
2019-04-21T10:52:34.019Z,1019.47
2019-04-21T10:53:32.086Z,1019.52
2019-04-21T10:54:57.284Z,1019.50
2019-04-21T10:55:48.696Z,1019.44
2019-04-21T10:56:37.994Z,1019.40
2019-04-21T10:57:33.041Z,1019.36
2019-04-21T10:58:32.236Z,1019.34
2019-04-21T10:59:33.129Z,1019.35
2019-04-21T11:00:32.401Z,1019.30
2019-04-21T11:01:31.995Z,1019.24
2019-04-21T11:02:32.922Z,1019.25
2019-04-21T11:03:33.216Z,1019.32
2019-04-21T11:04:36.459Z,1019.29
2019-04-21T11:05:32.953Z,1019.24
2019-04-21T11:06:32.615Z,1019.25
2019-04-21T11:07:39.010Z,1019.18
2019-04-21T11:08:38.045Z,1019.19
2019-04-21T11:09:33.946Z,1019.18
2019-04-21T11:10:32.061Z,1019.18
2019-04-21T11:11:32.211Z,1019.14
2019-04-21T11:12:31.885Z,1019.20
2019-04-21T11:13:32.637Z,1019.15
2019-04-21T11:14:31.909Z,1019.12
2019-04-21T11:15:32.832Z,1019.14
2019-04-21T11:16:33.145Z,1019.03
2019-04-21T11:17:32.335Z,1019.01
2019-04-21T11:18:31.846Z,1019.06
2019-04-21T11:19:32.789Z,1019.04
2019-04-21T11:20:32.972Z,1019.06
2019-04-21T11:21:31.784Z,1019.01
2019-04-21T11:22:33.938Z,1019.03
2019-04-21T11:23:33.103Z,1019.05
2019-04-21T11:24:33.139Z,1019.07
2019-04-21T11:25:31.742Z,1019.10
2019-04-21T11:26:31.959Z,1019.13
2019-04-21T11:27:33.135Z,1019.16
2019-04-21T11:28:31.713Z,1019.16
2019-04-21T11:29:32.966Z,1019.18
2019-04-21T11:30:31.853Z,1019.23
2019-04-21T11:31:31.682Z,1019.23
2019-04-21T11:32:32.790Z,1019.22
2019-04-21T11:33:31.658Z,1019.21
2019-04-21T11:34:31.659Z,1019.22
2019-04-21T11:35:32.899Z,1019.25
2019-04-21T11:36:31.631Z,1019.18
2019-04-21T11:37:32.317Z,1019.19
2019-04-21T11:38:33.532Z,1019.17
2019-04-21T11:39:42.109Z,1019.20
2019-04-21T11:40:34.034Z,1019.19
2019-04-21T11:41:31.919Z,1019.16
2019-04-21T11:42:31.569Z,1019.18
2019-04-21T11:43:32.773Z,1019.17
2019-04-21T11:44:31.550Z,1019.11
2019-04-21T11:45:32.676Z,1019.00
2019-04-21T11:46:31.528Z,1018.84
2019-04-21T11:47:32.266Z,1018.80
2019-04-21T11:48:32.516Z,1018.77
2019-04-21T11:49:32.593Z,1018.84
2019-04-21T11:50:32.837Z,1018.95
2019-04-21T11:51:31.478Z,1018.89
2019-04-21T11:52:32.599Z,1018.98
2019-04-21T11:53:32.773Z,1019.03
2019-04-21T11:54:32.832Z,1019.02
2019-04-21T11:55:34.375Z,1019.08
2019-04-21T11:56:32.776Z,1018.99
2019-04-21T11:57:36.741Z,1019.06
2019-04-21T11:58:32.407Z,1019.04
2019-04-21T11:59:31.398Z,1019.08
2019-04-21T12:00:31.655Z,1019.13
2019-04-21T12:01:31.892Z,1019.06
2019-04-21T12:02:31.377Z,1019.07
2019-04-21T12:03:31.787Z,1019.10
2019-04-21T12:04:31.693Z,1019.07
2019-04-21T12:05:31.365Z,1019.08
2019-04-21T12:06:37.760Z,1019.03
2019-04-21T12:07:33.405Z,1018.91
2019-04-21T12:08:39.301Z,1018.78
2019-04-21T12:09:33.294Z,1018.73
2019-04-21T12:10:31.551Z,1018.78
2019-04-21T12:11:31.500Z,1018.90
2019-04-21T12:12:31.270Z,1018.87
2019-04-21T12:13:32.193Z,1018.86
2019-04-21T12:14:32.119Z,1018.88
2019-04-21T12:15:31.463Z,1018.85
2019-04-21T12:16:31.236Z,1018.87
2019-04-21T12:17:32.074Z,1018.88
2019-04-21T12:18:32.454Z,1018.84
2019-04-21T12:19:32.477Z,1018.82
2019-04-21T12:20:31.214Z,1018.76
2019-04-21T12:21:47.979Z,1018.72
2019-04-21T12:22:33.975Z,1018.66
2019-04-21T12:23:32.395Z,1018.57
2019-04-21T12:24:32.839Z,1018.56
2019-04-21T12:25:31.399Z,1018.49
2019-04-21T12:26:31.804Z,1018.47
2019-04-21T12:27:32.045Z,1018.47
2019-04-21T12:28:32.397Z,1018.42
2019-04-21T12:29:31.103Z,1018.38
2019-04-21T12:30:31.567Z,1018.38
2019-04-21T12:31:31.750Z,1018.43
2019-04-21T12:32:31.071Z,1018.36
2019-04-21T12:33:32.086Z,1018.31
2019-04-21T12:34:32.166Z,1018.34
2019-04-21T12:35:31.050Z,1018.28
2019-04-21T12:36:31.756Z,1018.24
2019-04-21T12:37:31.047Z,1018.24
2019-04-21T12:38:40.930Z,1018.13
2019-04-21T12:39:32.805Z,1018.16
2019-04-21T12:40:31.000Z,1018.21
2019-04-21T12:41:31.018Z,1018.15
2019-04-21T12:42:32.337Z,1018.12
2019-04-21T12:43:30.959Z,1018.08
2019-04-21T12:44:31.645Z,1018.03
2019-04-21T12:45:31.598Z,1018.07
2019-04-21T12:46:31.838Z,1018.01
2019-04-21T12:47:32.022Z,1018.00
2019-04-21T12:48:31.781Z,1017.98
2019-04-21T12:49:31.791Z,1017.91
2019-04-21T12:50:32.083Z,1017.92
2019-04-21T12:51:30.887Z,1017.88
2019-04-21T12:52:31.559Z,1017.80
2019-04-21T12:53:31.906Z,1017.84
2019-04-21T12:54:30.852Z,1017.82
2019-04-21T12:55:36.622Z,1017.80
2019-04-21T12:56:31.841Z,1017.83
2019-04-21T12:57:32.809Z,1017.88
2019-04-21T12:58:31.108Z,1017.93
2019-04-21T12:59:34.512Z,1017.90
2019-04-21T13:00:31.224Z,1017.84
2019-04-21T13:01:30.888Z,1017.79
2019-04-21T13:02:31.710Z,1017.73
2019-04-21T13:03:32.073Z,1017.67
2019-04-21T13:04:31.555Z,1017.72
2019-04-21T13:05:31.631Z,1017.70
2019-04-21T13:06:31.788Z,1017.65
2019-04-21T13:07:31.211Z,1017.63
2019-04-21T13:08:43.610Z,1017.65
2019-04-21T13:09:32.467Z,1017.63
2019-04-21T13:10:30.705Z,1017.66
2019-04-21T13:11:31.016Z,1017.54
2019-04-21T13:12:31.114Z,1017.60
2019-04-21T13:13:30.646Z,1017.62
2019-04-21T13:14:31.579Z,1017.55
2019-04-21T13:15:31.388Z,1017.52
2019-04-21T13:16:31.675Z,1017.50
2019-04-21T13:17:31.115Z,1017.48
2019-04-21T13:18:31.490Z,1017.47
2019-04-21T13:19:31.525Z,1017.50
2019-04-21T13:20:30.579Z,1017.44
2019-04-21T13:21:31.910Z,1017.48
2019-04-21T13:22:30.552Z,1017.41
2019-04-21T13:23:31.317Z,1017.43
2019-04-21T13:24:31.720Z,1017.43
2019-04-21T13:25:31.687Z,1017.40
2019-04-21T13:26:41.911Z,1017.38
2019-04-21T13:27:31.499Z,1017.37
2019-04-21T13:28:30.513Z,1017.35
2019-04-21T13:29:30.490Z,1017.36
2019-04-21T13:30:30.616Z,1017.31
2019-04-21T13:31:30.469Z,1017.29
2019-04-21T13:32:31.164Z,1017.32
2019-04-21T13:33:31.223Z,1017.23
2019-04-21T13:34:31.702Z,1017.34
2019-04-21T13:35:30.959Z,1017.22
2019-04-21T13:36:31.669Z,1017.28
2019-04-21T13:37:30.403Z,1017.30
2019-04-21T13:38:38.733Z,1017.20
2019-04-21T13:39:55.583Z,1017.22
2019-04-21T13:40:51.762Z,1017.17
2019-04-21T13:41:42.898Z,1017.07
2019-04-21T13:42:39.466Z,1017.13
2019-04-21T13:43:32.860Z,1017.19
2019-04-21T13:44:30.942Z,1017.15
2019-04-21T13:45:30.310Z,1017.12
2019-04-21T13:46:31.096Z,1017.04
2019-04-21T13:47:30.558Z,1017.01
2019-04-21T13:48:30.706Z,1017.04
2019-04-21T13:49:31.532Z,1017.03
2019-04-21T13:50:31.176Z,1017.01
2019-04-21T13:51:31.147Z,1017.01
2019-04-21T13:52:30.950Z,1017.01
2019-04-21T13:53:32.581Z,1016.93
2019-04-21T13:54:31.506Z,1016.97
2019-04-21T13:55:31.756Z,1016.91
2019-04-21T13:56:30.196Z,1016.86
2019-04-21T13:57:30.462Z,1016.90
2019-04-21T13:58:30.492Z,1016.88
2019-04-21T13:59:30.166Z,1016.82
2019-04-21T14:00:31.657Z,1016.83
2019-04-21T14:01:30.141Z,1016.83
2019-04-21T14:02:30.955Z,1016.85
2019-04-21T14:03:31.327Z,1016.88
2019-04-21T14:04:31.415Z,1016.84
2019-04-21T14:05:30.673Z,1016.82
2019-04-21T14:06:30.249Z,1016.82
2019-04-21T14:07:30.303Z,1016.84
2019-04-21T14:08:31.295Z,1016.83
2019-04-21T14:09:40.411Z,1016.75
2019-04-21T14:10:31.539Z,1016.78
2019-04-21T14:11:31.324Z,1016.80
2019-04-21T14:12:30.037Z,1016.77
2019-04-21T14:13:30.344Z,1016.72
2019-04-21T14:14:30.394Z,1016.70
2019-04-21T14:15:30.366Z,1016.67
2019-04-21T14:16:30.010Z,1016.70
2019-04-21T14:17:30.943Z,1016.71
2019-04-21T14:18:30.986Z,1016.71
2019-04-21T14:19:31.045Z,1016.71
2019-04-21T14:20:31.107Z,1016.66
2019-04-21T14:21:31.298Z,1016.62
2019-04-21T14:22:29.926Z,1016.64
2019-04-21T14:23:37.477Z,1016.65
2019-04-21T14:24:31.037Z,1016.69
2019-04-21T14:25:29.995Z,1016.65
2019-04-21T14:26:30.033Z,1016.62
2019-04-21T14:27:30.161Z,1016.64
2019-04-21T14:28:30.309Z,1016.62
2019-04-21T14:29:31.231Z,1016.61
2019-04-21T14:30:30.471Z,1016.61
2019-04-21T14:31:30.443Z,1016.66
2019-04-21T14:32:29.841Z,1016.63
2019-04-21T14:33:29.924Z,1016.63
2019-04-21T14:34:30.231Z,1016.64
2019-04-21T14:35:29.792Z,1016.58
2019-04-21T14:36:30.707Z,1016.62
2019-04-21T14:37:30.832Z,1016.66
2019-04-21T14:38:29.752Z,1016.63
2019-04-21T14:39:30.391Z,1016.60
2019-04-21T14:40:32.873Z,1016.61
2019-04-21T14:41:30.389Z,1016.58
2019-04-21T14:42:29.925Z,1016.59
2019-04-21T14:43:30.103Z,1016.60
2019-04-21T14:44:31.016Z,1016.60
2019-04-21T14:45:30.408Z,1016.61
2019-04-21T14:46:31.148Z,1016.61
2019-04-21T14:47:29.669Z,1016.57
2019-04-21T14:48:29.724Z,1016.57
2019-04-21T14:49:30.969Z,1016.52
2019-04-21T14:50:30.385Z,1016.53
2019-04-21T14:51:29.606Z,1016.55
2019-04-21T14:52:30.844Z,1016.52
2019-04-21T14:53:29.760Z,1016.52
2019-04-21T14:54:30.883Z,1016.54
2019-04-21T14:55:31.081Z,1016.51
2019-04-21T14:56:29.556Z,1016.48
2019-04-21T14:57:29.625Z,1016.46
2019-04-21T14:58:30.741Z,1016.46
2019-04-21T14:59:31.001Z,1016.46
2019-04-21T15:00:29.509Z,1016.44
2019-04-21T15:01:29.500Z,1016.35
2019-04-21T15:02:29.917Z,1016.36
2019-04-21T15:03:29.961Z,1016.36
2019-04-21T15:04:29.465Z,1016.32
2019-04-21T15:05:29.455Z,1016.35
2019-04-21T15:06:29.597Z,1016.34
2019-04-21T15:07:30.840Z,1016.32
2019-04-21T15:08:29.435Z,1016.32
2019-04-21T15:09:29.560Z,1016.33
2019-04-21T15:10:32.197Z,1016.25
2019-04-21T15:11:29.881Z,1016.27
2019-04-21T15:12:29.957Z,1016.37
2019-04-21T15:13:29.995Z,1016.39
2019-04-21T15:14:29.811Z,1016.34
2019-04-21T15:15:29.959Z,1016.31
2019-04-21T15:16:29.338Z,1016.26
2019-04-21T15:17:29.449Z,1016.26
2019-04-21T15:18:30.647Z,1016.27
2019-04-21T15:19:30.482Z,1016.23
2019-04-21T15:20:30.892Z,1016.22
2019-04-21T15:21:29.283Z,1016.17
2019-04-21T15:22:30.462Z,1016.23
2019-04-21T15:23:30.507Z,1016.16
2019-04-21T15:24:30.210Z,1016.17
2019-04-21T15:25:30.201Z,1016.15
2019-04-21T15:26:30.456Z,1016.12
2019-04-21T15:27:30.615Z,1016.11
2019-04-21T15:28:32.128Z,1016.10
2019-04-21T15:29:29.199Z,1016.08
2019-04-21T15:30:29.193Z,1016.08
2019-04-21T15:31:33.882Z,1016.06
2019-04-21T15:32:30.633Z,1015.99
2019-04-21T15:33:29.167Z,1016.03
2019-04-21T15:34:29.842Z,1016.00
2019-04-21T15:35:29.135Z,1015.98
2019-04-21T15:36:31.767Z,1015.98
2019-04-21T15:37:29.115Z,1015.96
2019-04-21T15:38:29.829Z,1015.95
2019-04-21T15:39:29.834Z,1015.94
2019-04-21T15:40:40.695Z,1016.03
2019-04-21T15:41:30.285Z,1015.92
2019-04-21T15:42:30.553Z,1015.93
2019-04-21T15:43:29.064Z,1015.94
2019-04-21T15:44:30.406Z,1015.93
2019-04-21T15:45:30.500Z,1015.88
2019-04-21T15:46:31.775Z,1015.92
2019-04-21T15:47:29.005Z,1015.85
2019-04-21T15:48:29.011Z,1015.84
2019-04-21T15:49:43.475Z,1015.86
2019-04-21T15:50:30.245Z,1015.86
2019-04-21T15:51:29.624Z,1015.81
2019-04-21T15:52:29.918Z,1015.80
2019-04-21T15:53:29.799Z,1015.83
2019-04-21T15:54:28.969Z,1015.82
2019-04-21T15:55:28.924Z,1015.75
2019-04-21T15:56:28.974Z,1015.76
2019-04-21T15:57:30.049Z,1015.81
2019-04-21T15:58:30.356Z,1015.79
2019-04-21T15:59:28.890Z,1015.75
2019-04-21T16:00:28.869Z,1015.71
2019-04-21T16:01:30.251Z,1015.75
2019-04-21T16:02:28.850Z,1015.71
2019-04-21T16:03:29.032Z,1015.70
2019-04-21T16:04:28.835Z,1015.59
2019-04-21T16:05:28.816Z,1015.66
2019-04-21T16:06:29.663Z,1015.62
2019-04-21T16:07:29.889Z,1015.61
2019-04-21T16:08:29.081Z,1015.64
2019-04-21T16:09:30.701Z,1015.63
2019-04-21T16:10:38.618Z,1015.62
2019-04-21T16:11:29.753Z,1015.60
2019-04-21T16:12:29.668Z,1015.56
2019-04-21T16:13:29.912Z,1015.54
2019-04-21T16:14:29.098Z,1015.54
2019-04-21T16:15:28.716Z,1015.54
2019-04-21T16:16:30.865Z,1015.54
2019-04-21T16:17:29.590Z,1015.51
2019-04-21T16:18:29.931Z,1015.52
2019-04-21T16:19:29.332Z,1015.52
2019-04-21T16:20:29.987Z,1015.53
2019-04-21T16:21:29.544Z,1015.54
2019-04-21T16:22:28.733Z,1015.53
2019-04-21T16:23:28.807Z,1015.55
2019-04-21T16:24:28.628Z,1015.57
2019-04-21T16:25:28.753Z,1015.58
2019-04-21T16:26:28.852Z,1015.51
2019-04-21T16:27:29.597Z,1015.54
2019-04-21T16:28:29.005Z,1015.52
2019-04-21T16:29:29.252Z,1015.53
2019-04-21T16:30:28.729Z,1015.52
2019-04-21T16:31:30.048Z,1015.48
2019-04-21T16:32:28.569Z,1015.46
2019-04-21T16:33:29.268Z,1015.49
2019-04-21T16:34:39.035Z,1015.44
2019-04-21T16:35:29.664Z,1015.42
2019-04-21T16:36:29.530Z,1015.43
2019-04-21T16:37:29.673Z,1015.38
2019-04-21T16:38:29.306Z,1015.37
2019-04-21T16:39:29.451Z,1015.37
2019-04-21T16:40:39.825Z,1015.38
2019-04-21T16:41:29.429Z,1015.35
2019-04-21T16:42:28.436Z,1015.29
2019-04-21T16:43:29.142Z,1015.38
2019-04-21T16:44:29.428Z,1015.36
2019-04-21T16:45:28.700Z,1015.32
2019-04-21T16:46:29.520Z,1015.32
2019-04-21T16:47:28.399Z,1015.29
2019-04-21T16:48:28.355Z,1015.39
2019-04-21T16:49:29.577Z,1015.32
2019-04-21T16:50:29.677Z,1015.28
2019-04-21T16:51:28.528Z,1015.32
2019-04-21T16:52:28.312Z,1015.28
2019-04-21T16:53:28.324Z,1015.31
2019-04-21T16:54:28.292Z,1015.26
2019-04-21T16:55:28.845Z,1015.30
2019-04-21T16:56:29.083Z,1015.29
2019-04-21T16:57:28.268Z,1015.26
2019-04-21T16:58:29.034Z,1015.25
2019-04-21T16:59:28.677Z,1015.23
2019-04-21T17:00:40.173Z,1015.23
2019-04-21T17:01:30.174Z,1015.25
2019-04-21T17:02:28.406Z,1015.22
2019-04-21T17:03:28.396Z,1015.22
2019-04-21T17:04:28.756Z,1015.26
2019-04-21T17:05:28.181Z,1015.22
2019-04-21T17:06:29.216Z,1015.22
2019-04-21T17:07:28.254Z,1015.19
2019-04-21T17:08:28.163Z,1015.18
2019-04-21T17:09:28.552Z,1015.20
2019-04-21T17:10:28.772Z,1015.12
2019-04-21T17:11:31.698Z,1015.18
2019-04-21T17:12:30.667Z,1015.17
2019-04-21T17:13:29.574Z,1015.18
2019-04-21T17:14:45.294Z,1015.12
2019-04-21T17:15:48.206Z,1015.16
2019-04-21T17:16:57.649Z,1015.10
2019-04-21T17:17:50.048Z,1015.09
2019-04-21T17:18:43.468Z,1015.11
2019-04-21T17:19:33.111Z,1015.08
2019-04-21T17:20:39.884Z,1015.10
2019-04-21T17:21:30.070Z,1015.09
2019-04-21T17:22:28.113Z,1015.11
2019-04-21T17:23:29.339Z,1015.07
2019-04-21T17:24:28.610Z,1015.08
2019-04-21T17:25:29.726Z,1015.07
2019-04-21T17:26:29.037Z,1015.07
2019-04-21T17:27:29.225Z,1015.09
2019-04-21T17:28:27.928Z,1015.06
2019-04-21T17:29:28.505Z,1015.10
2019-04-21T17:30:28.444Z,1015.07
2019-04-21T17:31:28.827Z,1015.05
2019-04-21T17:32:34.376Z,1015.06
2019-04-21T17:33:30.383Z,1015.06
2019-04-21T17:34:30.204Z,1015.06
2019-04-21T17:35:28.977Z,1015.06
2019-04-21T17:36:29.322Z,1015.04
2019-04-21T17:37:29.205Z,1015.04
2019-04-21T17:38:28.028Z,1015.04
2019-04-21T17:39:28.919Z,1015.04
2019-04-21T17:40:27.829Z,1014.97
2019-04-21T17:41:33.998Z,1014.96
2019-04-21T17:42:36.301Z,1015.01
2019-04-21T17:43:29.876Z,1014.97
2019-04-21T17:44:27.828Z,1015.03
2019-04-21T17:45:28.963Z,1015.04
2019-04-21T17:46:36.563Z,1014.99
2019-04-21T17:47:38.404Z,1015.04
2019-04-21T17:48:29.268Z,1015.02
2019-04-21T17:49:28.784Z,1014.99
2019-04-21T17:50:27.688Z,1015.05
2019-04-21T17:51:27.708Z,1015.07
2019-04-21T17:52:35.235Z,1015.01
2019-04-21T17:53:34.624Z,1015.02
2019-04-21T17:54:35.644Z,1015.00
2019-04-21T17:55:33.600Z,1015.03
2019-04-21T17:56:53.664Z,1015.03
2019-04-21T17:57:51.803Z,1015.04
2019-04-21T17:58:55.163Z,1015.05
2019-04-21T17:59:56.337Z,1015.07
2019-04-21T18:01:09.257Z,1014.96
2019-04-21T18:01:48.624Z,1015.01
2019-04-21T18:02:51.829Z,1015.00
2019-04-21T18:03:53.559Z,1015.02
2019-04-21T18:04:49.303Z,1015.03
2019-04-21T18:05:47.040Z,1015.00
2019-04-21T18:06:46.716Z,1015.02
2019-04-21T18:07:46.527Z,1014.99
2019-04-21T18:08:48.330Z,1014.99
2019-04-21T18:09:51.077Z,1014.99
2019-04-21T18:10:43.998Z,1014.94
2019-04-21T18:11:46.903Z,1015.00
2019-04-21T18:12:42.465Z,1015.00
2019-04-21T18:13:28.771Z,1015.00
2019-04-21T18:14:28.467Z,1014.99
2019-04-21T18:15:40.257Z,1015.00
2019-04-21T18:16:34.237Z,1014.98
2019-04-21T18:17:28.770Z,1015.03
2019-04-21T18:18:28.741Z,1015.00
2019-04-21T18:19:31.051Z,1015.03
2019-04-21T18:20:28.371Z,1015.00
2019-04-21T18:21:27.371Z,1015.05
2019-04-21T18:22:34.246Z,1015.01
2019-04-21T18:23:39.432Z,1015.06
2019-04-21T18:24:41.132Z,1015.01
2019-04-21T18:25:44.415Z,1015.03
2019-04-21T18:26:38.010Z,1015.04
2019-04-21T18:27:29.781Z,1015.04
2019-04-21T18:28:28.442Z,1015.02
2019-04-21T18:29:27.727Z,1015.07
2019-04-21T18:30:28.378Z,1015.05
2019-04-21T18:31:33.910Z,1015.14
2019-04-21T18:32:34.142Z,1015.06
2019-04-21T18:33:33.835Z,1015.04
2019-04-21T18:34:30.682Z,1015.07
2019-04-21T18:35:29.297Z,1015.09
2019-04-21T18:36:34.101Z,1015.09
2019-04-21T18:37:35.026Z,1015.12
2019-04-21T18:38:43.126Z,1015.09
2019-04-21T18:39:45.388Z,1015.12
2019-04-21T18:40:34.848Z,1015.06
2019-04-21T18:41:30.135Z,1015.07
2019-04-21T18:42:47.875Z,1015.13
2019-04-21T18:43:56.752Z,1015.13
2019-04-21T18:45:07.632Z,1015.07
2019-04-21T18:45:57.267Z,1015.12
2019-04-21T18:46:55.575Z,1015.14
2019-04-21T18:47:39.876Z,1015.15
2019-04-21T18:48:37.053Z,1015.13
2019-04-21T18:49:29.170Z,1015.16
2019-04-21T18:50:29.365Z,1015.15
2019-04-21T18:51:39.171Z,1015.17
2019-04-21T18:52:45.338Z,1015.21
2019-04-21T18:53:47.006Z,1015.21
2019-04-21T18:54:45.844Z,1015.18
2019-04-21T18:55:34.254Z,1015.21
2019-04-21T18:56:29.547Z,1015.24
2019-04-21T18:57:36.726Z,1015.24
2019-04-21T18:58:28.802Z,1015.22
2019-04-21T18:59:33.913Z,1015.23
2019-04-21T19:00:31.769Z,1015.24
2019-04-21T19:01:31.320Z,1015.27
2019-04-21T19:02:31.759Z,1015.24
2019-04-21T19:03:35.403Z,1015.29
2019-04-21T19:04:30.053Z,1015.23
2019-04-21T19:05:29.675Z,1015.26
2019-04-21T19:06:48.389Z,1015.22
2019-04-21T19:07:45.456Z,1015.25
2019-04-21T19:08:46.601Z,1015.25
2019-04-21T19:10:11.386Z,1015.27
2019-04-21T19:10:50.306Z,1015.29
2019-04-21T19:11:49.714Z,1015.29
2019-04-21T19:13:16.164Z,1015.26
2019-04-21T19:13:51.151Z,1015.28
2019-04-21T19:14:46.027Z,1015.34
2019-04-21T19:16:07.571Z,1015.32
2019-04-21T19:16:47.554Z,1015.34
2019-04-21T19:18:53.059Z,1015.33
2019-04-21T19:20:10.610Z,1015.40
2019-04-21T19:20:46.332Z,1015.36
2019-04-21T19:21:49.916Z,1015.37
2019-04-21T19:22:45.768Z,1015.35
2019-04-21T19:23:59.261Z,1015.33
2019-04-21T19:24:48.655Z,1015.34
2019-04-21T19:25:49.968Z,1015.35
2019-04-21T19:26:52.515Z,1015.29
2019-04-21T19:27:45.502Z,1015.33
2019-04-21T19:28:54.780Z,1015.35
2019-04-21T19:29:53.955Z,1015.30
2019-04-21T19:30:49.963Z,1015.36
2019-04-21T19:31:49.574Z,1015.36
2019-04-21T19:32:45.409Z,1015.29
2019-04-21T19:33:36.241Z,1015.34
2019-04-21T19:34:33.701Z,1015.34
2019-04-21T19:35:27.852Z,1015.32
2019-04-21T19:36:29.148Z,1015.35
2019-04-21T19:37:28.892Z,1015.37
2019-04-21T19:38:34.986Z,1015.34
2019-04-21T19:39:43.371Z,1015.37
2019-04-21T19:40:44.735Z,1015.33
2019-04-21T19:41:41.155Z,1015.32
2019-04-21T19:42:38.299Z,1015.29
2019-04-21T19:43:45.998Z,1015.30
2019-04-21T19:44:47.214Z,1015.37
2019-04-21T19:45:38.121Z,1015.34
2019-04-21T19:46:38.239Z,1015.37
2019-04-21T19:47:48.807Z,1015.36
2019-04-21T19:48:55.282Z,1015.34
2019-04-21T19:49:49.687Z,1015.37
2019-04-21T19:50:47.320Z,1015.37
2019-04-21T19:51:40.552Z,1015.34
2019-04-21T19:52:41.030Z,1015.35
2019-04-21T19:53:41.588Z,1015.35
2019-04-21T19:54:33.948Z,1015.24
2019-04-21T19:55:27.814Z,1015.28
2019-04-21T19:56:26.335Z,1015.33
2019-04-21T19:57:27.244Z,1015.35
2019-04-21T19:58:33.003Z,1015.34
2019-04-21T19:59:34.647Z,1015.37
2019-04-21T20:00:28.494Z,1015.32
2019-04-21T20:01:27.594Z,1015.32
2019-04-21T20:02:26.798Z,1015.42
2019-04-21T20:03:26.416Z,1015.36
2019-04-21T20:04:34.113Z,1015.37
2019-04-21T20:05:36.083Z,1015.36
2019-04-21T20:06:42.099Z,1015.37
2019-04-21T20:07:43.875Z,1015.33
2019-04-21T20:08:41.858Z,1015.33
2019-04-21T20:09:43.296Z,1015.35
2019-04-21T20:10:52.867Z,1015.33
2019-04-21T20:11:41.739Z,1015.33
2019-04-21T20:12:47.413Z,1015.40
2019-04-21T20:14:27.597Z,1015.35
2019-04-21T20:15:44.850Z,1015.37
2019-04-21T20:16:45.274Z,1015.34
2019-04-21T20:17:42.333Z,1015.35
2019-04-21T20:18:34.815Z,1015.39
2019-04-21T20:19:27.084Z,1015.29
2019-04-21T20:20:26.933Z,1015.31
2019-04-21T20:21:26.829Z,1015.31
2019-04-21T20:22:32.732Z,1015.39
2019-04-21T20:23:31.877Z,1015.35
2019-04-21T20:24:31.621Z,1015.34
2019-04-21T20:25:27.600Z,1015.36
2019-04-21T20:26:31.334Z,1015.38
2019-04-21T20:27:38.522Z,1015.37
2019-04-21T20:28:44.336Z,1015.36
2019-04-21T20:29:44.548Z,1015.29
2019-04-21T20:30:42.624Z,1015.35
2019-04-21T20:31:40.949Z,1015.34
2019-04-21T20:32:48.853Z,1015.43
2019-04-21T20:34:46.102Z,1015.32
2019-04-21T20:35:53.400Z,1015.31
2019-04-21T20:36:51.826Z,1015.31
2019-04-21T20:37:42.288Z,1015.31
2019-04-21T20:38:35.604Z,1015.31
2019-04-21T20:39:38.249Z,1015.27
2019-04-21T20:40:36.156Z,1015.35
2019-04-21T20:41:40.642Z,1015.29
2019-04-21T20:42:42.728Z,1015.32
2019-04-21T20:43:46.523Z,1015.33
2019-04-21T20:44:43.814Z,1015.33
2019-04-21T20:45:49.446Z,1015.33
2019-04-21T20:46:41.343Z,1015.30
2019-04-21T20:47:35.583Z,1015.37
2019-04-21T20:48:42.792Z,1015.36
2019-04-21T20:49:35.235Z,1015.31
2019-04-21T20:50:36.380Z,1015.34
2019-04-21T20:51:46.863Z,1015.30
2019-04-21T20:52:48.923Z,1015.35
2019-04-21T20:53:41.561Z,1015.37
2019-04-21T20:54:44.044Z,1015.28
2019-04-21T20:55:42.971Z,1015.34
2019-04-21T20:56:45.222Z,1015.36
2019-04-21T20:57:40.838Z,1015.31
2019-04-21T20:58:45.244Z,1015.32
2019-04-21T20:59:36.971Z,1015.28
2019-04-21T21:00:54.581Z,1015.27
2019-04-21T21:01:43.322Z,1015.28
2019-04-21T21:02:49.067Z,1015.26
2019-04-21T21:03:43.235Z,1015.29
2019-04-21T21:04:37.047Z,1015.29
2019-04-21T21:05:39.878Z,1015.26
2019-04-21T21:06:42.306Z,1015.24
2019-04-21T21:07:47.273Z,1015.24
2019-04-21T21:08:44.966Z,1015.23
2019-04-21T21:09:41.236Z,1015.24
2019-04-21T21:10:38.823Z,1015.18
2019-04-21T21:11:46.728Z,1015.23
2019-04-21T21:12:52.730Z,1015.19
2019-04-21T21:13:44.477Z,1015.17
2019-04-21T21:14:42.176Z,1015.22
2019-04-21T21:15:44.573Z,1015.22
2019-04-21T21:16:46.304Z,1015.25
2019-04-21T21:19:48.673Z,1015.15
2019-04-21T21:20:43.527Z,1015.19
2019-04-21T21:21:40.217Z,1015.23
2019-04-21T21:23:42.500Z,1015.14
2019-04-21T21:24:49.544Z,1015.22
2019-04-21T21:25:45.207Z,1015.18
2019-04-21T21:26:47.091Z,1015.19
2019-04-21T21:27:41.825Z,1015.18
2019-04-21T21:28:39.051Z,1015.15
2019-04-21T21:29:47.543Z,1015.20
2019-04-21T21:30:37.539Z,1015.15
2019-04-21T21:31:41.794Z,1015.25
2019-04-21T21:32:42.803Z,1015.26
2019-04-21T21:33:50.662Z,1015.26
2019-04-21T21:34:45.395Z,1015.27
2019-04-21T21:35:39.557Z,1015.27
2019-04-21T21:36:43.513Z,1015.24
2019-04-21T21:37:41.659Z,1015.29
2019-04-21T21:38:45.881Z,1015.26
2019-04-21T21:39:52.000Z,1015.27
2019-04-21T21:40:42.816Z,1015.25
2019-04-21T21:41:32.322Z,1015.26
2019-04-21T21:42:31.881Z,1015.25
2019-04-21T21:43:28.706Z,1015.29
2019-04-21T21:44:28.206Z,1015.28
2019-04-21T21:45:27.526Z,1015.29
2019-04-21T21:46:40.154Z,1015.27
2019-04-21T21:47:46.145Z,1015.32
2019-04-21T21:48:40.808Z,1015.25
2019-04-21T21:49:37.103Z,1015.30
2019-04-21T21:50:35.783Z,1015.24
2019-04-21T21:51:42.254Z,1015.28
2019-04-21T21:52:39.940Z,1015.26
2019-04-21T21:53:28.902Z,1015.27
2019-04-21T21:54:27.628Z,1015.25
2019-04-21T21:55:25.631Z,1015.25
2019-04-21T21:56:25.059Z,1015.24
2019-04-21T21:57:26.160Z,1015.23
2019-04-21T21:58:31.084Z,1015.19
2019-04-21T21:59:29.384Z,1015.21
2019-04-21T22:00:26.099Z,1015.18
2019-04-21T22:01:31.877Z,1015.19
2019-04-21T22:02:35.315Z,1015.19
2019-04-21T22:03:31.782Z,1015.21
2019-04-21T22:04:28.861Z,1015.17
2019-04-21T22:05:29.298Z,1015.18
2019-04-21T22:06:38.731Z,1015.15
2019-04-21T22:07:31.026Z,1015.16
2019-04-21T22:08:25.910Z,1015.16
2019-04-21T22:09:26.165Z,1015.20
2019-04-21T22:10:25.302Z,1015.21
2019-04-21T22:11:26.025Z,1015.18
2019-04-21T22:12:25.841Z,1015.18
2019-04-21T22:13:35.472Z,1015.17
2019-04-21T22:14:34.062Z,1015.22
2019-04-21T22:15:29.504Z,1015.26
2019-04-21T22:16:38.869Z,1015.23
2019-04-21T22:17:41.968Z,1015.26
2019-04-21T22:18:43.310Z,1015.20
2019-04-21T22:19:55.923Z,1015.21
2019-04-21T22:20:44.484Z,1015.21
2019-04-21T22:21:49.378Z,1015.25
2019-04-21T22:22:40.146Z,1015.30
2019-04-21T22:23:36.754Z,1015.29
2019-04-21T22:24:43.974Z,1015.30
2019-04-21T22:25:29.957Z,1015.27
2019-04-21T22:26:27.190Z,1015.24
2019-04-21T22:27:25.319Z,1015.25
2019-04-21T22:28:25.378Z,1015.28
2019-04-21T22:29:27.919Z,1015.22
2019-04-21T22:30:34.413Z,1015.16
2019-04-21T22:31:31.868Z,1015.23
2019-04-21T22:32:29.004Z,1015.19
2019-04-21T22:33:25.994Z,1015.20
2019-04-21T22:34:30.234Z,1015.23
2019-04-21T22:35:34.452Z,1015.22
2019-04-21T22:36:36.565Z,1015.24
2019-04-21T22:37:38.040Z,1015.28
2019-04-21T22:38:40.895Z,1015.15
2019-04-21T22:39:44.910Z,1015.20
2019-04-21T22:40:42.941Z,1015.18
2019-04-21T22:41:33.714Z,1015.23
2019-04-21T22:42:29.605Z,1015.22
2019-04-21T22:43:32.500Z,1015.26
2019-04-21T22:44:25.519Z,1015.21
2019-04-21T22:45:25.192Z,1015.18
2019-04-21T22:46:24.532Z,1015.21
2019-04-21T22:47:31.665Z,1015.23
2019-04-21T22:48:28.646Z,1015.18
2019-04-21T22:49:24.470Z,1015.14
2019-04-21T22:50:24.654Z,1015.16
2019-04-21T22:51:34.858Z,1015.20
2019-04-21T22:52:29.544Z,1015.18